Time;durP1;ratioP1;P1;durP2;ratioP2;P2;SDS_P1;SDS_P2;PMS_P1;PMS_P2;Temp;Humidity;BMP_temperature;BMP_pressure;BME280_temperature;BME280_humidity;BME280_pressure;Samples;Min_cycle;Max_cycle;Signal;HPM_P1;HPM_P2
2021/03/04 00:01:14;;;;;;;16.65;13.20;;;18.20;51.60;;;;;;5106701;28;20184;-59
2021/03/04 00:03:40;;;;;;;14.93;11.98;;;18.20;51.50;;;;;;5106538;28;20959;-59
2021/03/04 00:06:05;;;;;;;17.35;13.38;;;18.10;51.50;;;;;;5106156;28;20245;-59
2021/03/04 00:08:31;;;;;;;15.45;12.95;;;18.20;51.60;;;;;;5106151;28;20283;-57
2021/03/04 00:10:56;;;;;;;15.02;12.48;;;18.10;51.50;;;;;;5106353;28;20247;-60
2021/03/04 00:13:22;;;;;;;14.52;12.43;;;18.10;51.60;;;;;;5106195;28;20185;-59
2021/03/04 00:15:50;;;;;;;16.88;13.25;;;18.10;51.60;;;;;;5105941;28;20272;-57
2021/03/04 00:18:15;;;;;;;16.25;13.63;;;18.10;51.60;;;;;;5105977;28;20208;-60
2021/03/04 00:20:41;;;;;;;13.98;11.93;;;18.10;51.60;;;;;;5106086;28;20177;-60
2021/03/04 00:23:06;;;;;;;16.10;12.93;;;18.10;51.60;;;;;;5106326;28;20170;-60
2021/03/04 00:25:34;;;;;;;13.95;12.38;;;18.10;51.60;;;;;;5106028;28;20291;-60
2021/03/04 00:27:59;;;;;;;14.43;12.15;;;18.00;52.20;;;;;;5105747;28;20176;-58
2021/03/04 00:30:25;;;;;;;13.85;12.32;;;18.10;51.60;;;;;;5105739;28;20177;-59
2021/03/04 00:32:51;;;;;;;13.88;12.15;;;18.00;51.60;;;;;;5105851;28;20592;-58
2021/03/04 00:35:16;;;;;;;14.45;12.90;;;18.00;51.60;;;;;;5105657;28;20184;-52
2021/03/04 00:37:42;;;;;;;15.05;13.35;;;18.00;51.60;;;;;;5105073;28;20957;-57
2021/03/04 00:40:09;;;;;;;16.13;13.65;;;17.90;51.60;;;;;;5105514;28;20177;-60
2021/03/04 00:42:35;;;;;;;16.38;13.02;;;18.00;51.60;;;;;;5105930;28;20180;-60
2021/03/04 00:45:05;;;;;;;15.38;13.77;;;18.00;51.60;;;;;;5105564;28;20209;-59
2021/03/04 00:47:30;;;;;;;15.43;12.93;;;18.00;51.60;;;;;;5105477;28;20179;-60
2021/03/04 00:49:56;;;;;;;15.90;13.20;;;17.90;51.60;;;;;;5105585;28;20180;-60
2021/03/04 00:52:21;;;;;;;15.57;13.05;;;17.90;51.50;;;;;;5105392;28;20197;-61
2021/03/04 00:54:47;;;;;;;13.82;12.43;;;17.90;51.60;;;;;;5105494;28;20192;-59
2021/03/04 00:57:13;;;;;;;14.70;12.52;;;17.90;51.60;;;;;;5105339;28;20180;-61
2021/03/04 00:59:38;;;;;;;17.80;13.90;;;17.90;51.60;;;;;;5104964;28;20187;-59
2021/03/04 01:02:04;;;;;;;16.55;13.68;;;17.90;51.60;;;;;;5105521;28;20177;-58
2021/03/04 01:04:29;;;;;;;16.63;13.27;;;17.90;51.50;;;;;;5105136;28;20204;-60
2021/03/04 01:06:55;;;;;;;15.23;12.02;;;17.90;51.60;;;;;;5086925;28;20198;-57
2021/03/04 01:09:20;;;;;;;16.52;13.40;;;17.80;51.50;;;;;;5104952;28;20214;-59
2021/03/04 01:11:46;;;;;;;16.00;13.10;;;17.80;51.60;;;;;;5105401;28;20299;-60
2021/03/04 01:14:11;;;;;;;14.23;12.70;;;17.80;51.50;;;;;;5105201;28;20537;-60
2021/03/04 01:16:37;;;;;;;16.77;13.43;;;17.90;51.60;;;;;;5105211;28;20555;-59
2021/03/04 01:19:03;;;;;;;15.63;13.05;;;17.80;51.50;;;;;;5104934;28;20173;-57
2021/03/04 01:21:28;;;;;;;14.38;12.43;;;17.80;51.50;;;;;;5104897;28;20255;-60
2021/03/04 01:23:54;;;;;;;15.23;13.48;;;17.80;51.50;;;;;;5104809;28;20177;-60
2021/03/04 01:26:19;;;;;;;16.13;13.48;;;17.80;51.50;;;;;;5104962;28;20201;-60
2021/03/04 01:28:45;;;;;;;15.35;12.70;;;17.80;51.50;;;;;;5105033;28;20173;-59
2021/03/04 01:31:10;;;;;;;15.77;12.80;;;17.70;51.50;;;;;;5105042;28;20227;-60
2021/03/04 01:33:36;;;;;;;15.75;12.38;;;17.70;52.10;;;;;;5104989;28;20172;-56
2021/03/04 01:36:01;;;;;;;15.82;13.20;;;17.80;51.60;;;;;;5104692;28;20222;-58
2021/03/04 01:38:27;;;;;;;16.05;13.38;;;17.70;51.50;;;;;;5086570;28;20177;-59
2021/03/04 01:40:52;;;;;;;14.45;12.18;;;17.70;51.50;;;;;;5105041;28;20767;-60
2021/03/04 01:43:18;;;;;;;16.15;12.70;;;17.70;51.50;;;;;;5105134;28;20176;-60
2021/03/04 01:45:44;;;;;;;15.23;13.18;;;17.70;51.50;;;;;;5104677;28;20614;-60
2021/03/04 01:48:10;;;;;;;16.52;13.35;;;17.70;51.50;;;;;;5104547;28;20181;-60
2021/03/04 01:50:35;;;;;;;14.23;12.23;;;17.70;51.50;;;;;;5104489;28;20173;-60
2021/03/04 01:53:01;;;;;;;14.18;11.48;;;17.70;51.50;;;;;;5086599;28;20169;-60
2021/03/04 01:55:26;;;;;;;15.55;12.73;;;17.70;51.50;;;;;;5104779;28;20665;-60
2021/03/04 01:57:52;;;;;;;15.40;12.75;;;17.70;51.50;;;;;;5086459;28;20272;-61
2021/03/04 02:00:19;;;;;;;13.43;11.77;;;17.70;51.60;;;;;;5086096;28;20184;-54
2021/03/04 02:02:44;;;;;;;15.25;12.32;;;17.70;51.50;;;;;;5104424;28;20172;-59
2021/03/04 02:05:12;;;;;;;16.58;13.65;;;17.70;51.50;;;;;;5104356;28;20205;-56
2021/03/04 02:08:01;;;;;;;14.52;12.43;;;17.60;51.50;;;;;;5104443;28;20199;-58
2021/03/04 02:10:29;;;;;;;14.52;12.93;;;17.60;51.40;;;;;;5088911;28;20177;-58
2021/03/04 02:13:15;;;;;;;13.77;11.50;;;17.60;51.50;;;;;;5104323;28;20173;-58
2021/03/04 02:15:54;;;;;;;14.48;12.02;;;17.60;51.50;;;;;;5086399;28;20180;-57
2021/03/04 02:18:20;;;;;;;14.98;12.60;;;17.60;51.50;;;;;;5086232;28;20173;-60
2021/03/04 02:20:51;;;;;;;14.65;12.00;;;17.60;51.50;;;;;;5085959;28;20177;-60
2021/03/04 02:23:25;;;;;;;13.75;11.68;;;17.60;51.50;;;;;;5086419;28;20234;-60
2021/03/04 02:25:59;;;;;;;13.93;11.82;;;17.60;51.50;;;;;;5104463;28;20204;-60
2021/03/04 02:28:25;;;;;;;15.35;12.95;;;17.60;51.50;;;;;;5085609;28;20199;-58
2021/03/04 02:30:51;;;;;;;14.40;12.20;;;17.60;51.40;;;;;;5086388;28;20177;-57
2021/03/04 02:33:17;;;;;;;15.00;12.93;;;17.60;51.50;;;;;;5086040;28;20177;-55
2021/03/04 02:35:43;;;;;;;13.13;11.45;;;17.50;51.40;;;;;;5086241;28;20193;-60
2021/03/04 02:38:12;;;;;;;12.52;11.20;;;17.50;51.50;;;;;;5104313;28;20204;-56
2021/03/04 02:40:40;;;;;;;13.20;11.50;;;17.50;51.50;;;;;;5086151;28;20183;-60
2021/03/04 02:43:13;;;;;;;12.35;11.13;;;17.50;51.40;;;;;;5103542;28;20627;-60
2021/03/04 02:45:39;;;;;;;12.68;10.95;;;17.50;51.40;;;;;;5085672;28;20216;-59
2021/03/04 02:48:05;;;;;;;13.18;11.20;;;17.50;51.50;;;;;;5085854;28;20177;-59
2021/03/04 02:50:31;;;;;;;14.02;11.55;;;17.50;51.50;;;;;;5085484;28;20185;-56
2021/03/04 02:52:57;;;;;;;12.48;11.18;;;17.50;51.50;;;;;;5069387;28;20177;-58
2021/03/04 02:55:22;;;;;;;12.15;10.82;;;17.50;51.50;;;;;;5085656;28;20522;-58
2021/03/04 02:57:48;;;;;;;12.57;10.60;;;17.50;51.50;;;;;;5085888;28;20181;-57
2021/03/04 03:00:24;;;;;;;12.68;11.20;;;17.50;51.50;;;;;;5087680;28;20177;-58
2021/03/04 03:02:51;;;;;;;14.15;11.35;;;17.50;51.40;;;;;;5107635;28;20648;-59
2021/03/04 03:05:18;;;;;;;12.85;10.93;;;17.50;51.50;;;;;;5089363;28;20205;-59
2021/03/04 03:07:44;;;;;;;12.00;10.75;;;17.40;51.40;;;;;;5107552;28;21345;-56
2021/03/04 03:10:13;;;;;;;12.02;10.75;;;17.40;51.40;;;;;;5107653;28;20165;-57
2021/03/04 03:12:41;;;;;;;11.52;10.32;;;17.40;51.40;;;;;;5107322;28;20242;-58
2021/03/04 03:15:08;;;;;;;12.25;10.05;;;17.40;51.50;;;;;;5089822;28;20268;-59
2021/03/04 03:17:34;;;;;;;12.90;11.02;;;17.40;51.30;;;;;;5107782;28;20173;-58
2021/03/04 03:20:01;;;;;;;12.48;11.18;;;17.40;51.30;;;;;;5107654;28;20200;-59
2021/03/04 03:22:26;;;;;;;13.05;11.15;;;17.40;51.40;;;;;;5107342;28;20173;-60
2021/03/04 03:24:52;;;;;;;11.57;10.07;;;17.40;51.40;;;;;;5088974;28;20245;-59
2021/03/04 03:27:17;;;;;;;11.55;10.18;;;17.40;51.40;;;;;;5107259;28;20534;-56
2021/03/04 03:29:43;;;;;;;11.65;10.45;;;17.40;51.40;;;;;;5107366;28;20177;-56
2021/03/04 03:32:09;;;;;;;12.10;10.80;;;17.40;51.40;;;;;;5107326;28;20181;-58
2021/03/04 03:34:35;;;;;;;12.50;10.57;;;17.30;51.40;;;;;;5107101;28;20169;-58
2021/03/04 03:37:00;;;;;;;12.05;10.85;;;17.40;51.40;;;;;;5088954;28;20176;-59
2021/03/04 03:39:26;;;;;;;11.77;10.55;;;17.30;51.40;;;;;;5107280;28;20181;-60
2021/03/04 03:41:52;;;;;;;13.23;11.50;;;17.30;51.40;;;;;;5088940;28;20623;-59
2021/03/04 03:44:17;;;;;;;11.93;10.50;;;17.30;51.40;;;;;;5088981;28;20606;-60
2021/03/04 03:46:43;;;;;;;11.52;10.32;;;17.30;51.40;;;;;;5088747;28;20239;-59
2021/03/04 03:49:11;;;;;;;12.00;10.25;;;17.30;51.50;;;;;;5088665;28;21002;-60
2021/03/04 03:51:36;;;;;;;11.35;10.15;;;17.30;51.40;;;;;;5089004;28;20173;-60
2021/03/04 03:54:03;;;;;;;12.55;10.60;;;17.30;51.40;;;;;;5107128;28;20211;-60
2021/03/04 03:56:29;;;;;;;11.98;10.40;;;17.30;51.30;;;;;;5106854;28;20382;-60
2021/03/04 03:58:58;;;;;;;11.88;10.68;;;17.30;51.40;;;;;;5088796;28;20300;-58
2021/03/04 04:01:30;;;;;;;11.57;10.30;;;17.30;51.40;;;;;;5088676;28;20173;-59
2021/03/04 04:03:57;;;;;;;11.68;10.43;;;17.30;51.30;;;;;;5088370;28;20200;-58
2021/03/04 04:06:23;;;;;;;10.90;9.75;;;17.30;51.50;;;;;;5106323;28;20209;-59
2021/03/04 04:08:48;;;;;;;12.32;9.82;;;17.30;51.50;;;;;;5088963;28;20181;-59
2021/03/04 04:11:14;;;;;;;11.32;9.60;;;17.30;51.40;;;;;;5087206;28;20173;-60
2021/03/04 04:13:39;;;;;;;12.10;10.68;;;17.20;51.30;;;;;;5106010;28;20181;-59
2021/03/04 04:16:06;;;;;;;12.50;10.63;;;17.20;51.40;;;;;;5088258;28;20195;-60
2021/03/04 04:18:32;;;;;;;11.73;10.45;;;17.20;51.30;;;;;;5087996;28;20185;-60
2021/03/04 04:20:58;;;;;;;10.63;9.52;;;17.20;51.30;;;;;;5106058;28;20240;-58
2021/03/04 04:23:23;;;;;;;12.20;10.90;;;17.20;51.40;;;;;;5106482;28;20268;-60
2021/03/04 04:25:53;;;;;;;10.63;9.52;;;17.20;51.40;;;;;;5087934;28;20238;-60
2021/03/04 04:28:19;;;;;;;10.93;9.05;;;17.20;51.40;;;;;;5105687;28;20615;-58
2021/03/04 04:30:44;;;;;;;10.45;9.45;;;17.20;51.40;;;;;;5105817;28;20177;-59
2021/03/04 04:33:10;;;;;;;11.55;10.02;;;17.20;51.40;;;;;;5106316;28;20643;-58
2021/03/04 04:35:36;;;;;;;10.23;9.23;;;17.20;51.40;;;;;;5105967;28;20181;-59
2021/03/04 04:38:02;;;;;;;13.00;10.27;;;17.20;51.40;;;;;;5106135;28;20642;-58
2021/03/04 04:40:27;;;;;;;10.88;9.82;;;17.20;51.30;;;;;;5106296;28;20173;-60
2021/03/04 04:42:53;;;;;;;11.77;10.10;;;17.10;51.40;;;;;;5105643;28;20173;-60
2021/03/04 04:45:18;;;;;;;10.98;9.77;;;17.20;51.40;;;;;;5105811;28;20287;-59
2021/03/04 04:47:44;;;;;;;11.52;10.32;;;17.10;51.30;;;;;;5105842;28;20180;-59
2021/03/04 04:50:10;;;;;;;11.48;10.27;;;17.10;51.40;;;;;;5105808;28;20215;-61
2021/03/04 04:52:35;;;;;;;9.95;8.95;;;17.10;51.40;;;;;;5105538;28;20173;-61
2021/03/04 04:55:01;;;;;;;11.32;10.13;;;17.10;51.30;;;;;;5105313;28;21111;-59
2021/03/04 04:57:27;;;;;;;9.40;8.50;;;17.10;51.30;;;;;;5105468;28;20942;-59
2021/03/04 04:59:52;;;;;;;11.10;9.65;;;17.10;51.30;;;;;;5105430;28;20177;-60
2021/03/04 05:02:18;;;;;;;10.38;9.27;;;17.10;51.30;;;;;;5105327;28;20185;-58
2021/03/04 05:04:43;;;;;;;10.05;9.05;;;17.10;51.30;;;;;;5104906;28;20204;-54
2021/03/04 05:07:09;;;;;;;11.07;9.25;;;17.10;51.30;;;;;;5105474;28;20208;-56
2021/03/04 05:09:35;;;;;;;11.02;9.60;;;17.10;51.30;;;;;;5104711;28;20172;-56
2021/03/04 05:12:00;;;;;;;9.85;8.82;;;17.10;51.30;;;;;;5105086;28;20188;-59
2021/03/04 05:14:26;;;;;;;10.43;9.27;;;17.10;51.40;;;;;;5105144;28;20177;-59
2021/03/04 05:16:51;;;;;;;10.93;9.50;;;17.00;51.30;;;;;;5104914;28;20180;-58
2021/03/04 05:19:17;;;;;;;10.10;9.10;;;17.10;51.40;;;;;;5104992;28;20169;-60
2021/03/04 05:21:42;;;;;;;10.77;9.68;;;17.00;51.30;;;;;;5104412;28;20261;-59
2021/03/04 05:24:08;;;;;;;10.88;9.77;;;17.10;51.40;;;;;;5105000;28;20208;-60
2021/03/04 05:26:36;;;;;;;11.02;9.80;;;17.10;51.40;;;;;;5104891;28;20646;-60
2021/03/04 05:29:02;;;;;;;11.05;9.95;;;17.00;51.30;;;;;;5104577;28;20310;-54
2021/03/04 05:31:28;;;;;;;10.25;9.13;;;17.00;51.30;;;;;;5104865;28;20519;-58
2021/03/04 05:33:54;;;;;;;9.50;8.52;;;17.00;51.30;;;;;;5104594;28;20187;-57
2021/03/04 05:36:19;;;;;;;9.73;8.73;;;17.00;51.20;;;;;;5104511;28;20209;-57
2021/03/04 05:38:45;;;;;;;10.10;9.07;;;17.00;51.30;;;;;;5086351;28;20664;-58
2021/03/04 05:41:10;;;;;;;9.98;8.95;;;17.00;51.30;;;;;;5104869;28;20641;-60
2021/03/04 05:43:39;;;;;;;9.82;8.82;;;17.00;51.30;;;;;;5086504;28;20199;-61
2021/03/04 05:46:05;;;;;;;9.68;8.70;;;17.00;51.30;;;;;;5104419;28;20216;-61
2021/03/04 05:48:30;;;;;;;9.85;8.85;;;17.00;51.30;;;;;;5104550;28;20554;-61
2021/03/04 05:50:57;;;;;;;9.43;8.52;;;17.00;51.30;;;;;;5086544;28;20173;-62
2021/03/04 05:53:22;;;;;;;9.65;8.43;;;16.90;51.30;;;;;;5086556;28;20173;-61
2021/03/04 05:55:48;;;;;;;9.13;8.18;;;17.00;51.30;;;;;;5086442;28;20179;-61
2021/03/04 05:58:14;;;;;;;9.88;8.88;;;16.90;51.30;;;;;;5104577;28;20260;-60
2021/03/04 06:00:43;;;;;;;9.68;8.73;;;16.90;51.30;;;;;;5104190;28;20181;-60
2021/03/04 06:03:09;;;;;;;9.63;8.63;;;17.00;51.30;;;;;;5104239;28;20264;-60
2021/03/04 06:05:34;;;;;;;8.60;7.70;;;16.90;51.30;;;;;;5104311;28;20217;-57
2021/03/04 06:08:04;;;;;;;9.20;7.95;;;16.90;51.30;;;;;;5104203;28;20291;-60
2021/03/04 06:10:30;;;;;;;8.55;7.63;;;17.00;51.50;;;;;;5104124;28;20181;-60
2021/03/04 06:12:55;;;;;;;8.00;7.25;;;17.00;51.50;;;;;;5104115;28;20623;-58
2021/03/04 06:15:22;;;;;;;7.88;7.07;;;17.10;51.50;;;;;;5104196;28;20173;-59
2021/03/04 06:17:54;;;;;;;8.30;7.35;;;17.30;51.30;;;;;;5104796;28;20272;-61
2021/03/04 06:20:20;;;;;;;7.63;6.93;;;17.50;51.20;;;;;;5104036;28;20179;-61
2021/03/04 06:22:46;;;;;;;7.53;6.82;;;17.60;50.90;;;;;;5086052;28;20177;-61
2021/03/04 06:25:12;;;;;;;7.53;6.82;;;17.80;50.60;;;;;;5103923;28;20205;-60
2021/03/04 06:27:39;;;;;;;6.78;6.18;;;18.00;50.30;;;;;;5104151;28;20828;-60
2021/03/04 06:30:16;;;;;;;8.05;6.55;;;18.10;50.70;;;;;;5104205;28;20169;-59
2021/03/04 06:32:57;;;;;;;7.22;6.53;;;18.30;49.90;;;;;;5085989;28;20639;-59
2021/03/04 06:35:26;;;;;;;7.20;6.50;;;18.40;49.80;;;;;;5106821;28;20181;-59
2021/03/04 06:37:51;;;;;;;7.00;6.28;;;18.40;49.70;;;;;;5108139;28;20184;-60
2021/03/04 06:40:33;;;;;;;6.85;5.90;;;18.40;49.60;;;;;;5107918;28;20172;-60
2021/03/04 06:42:58;;;;;;;7.53;6.18;;;18.50;49.40;;;;;;5108230;28;20161;-60
2021/03/04 06:45:27;;;;;;;6.53;5.80;;;18.60;49.20;;;;;;5108415;28;20242;-61
2021/03/04 06:48:06;;;;;;;6.00;5.40;;;18.70;49.00;;;;;;5108114;28;20173;-61
2021/03/04 06:50:31;;;;;;;6.38;5.78;;;18.80;49.00;;;;;;5108303;28;20187;-61
2021/03/04 06:52:57;;;;;;;6.65;6.05;;;18.80;48.80;;;;;;5107413;28;20173;-60
2021/03/04 06:55:22;;;;;;;6.15;5.55;;;18.80;48.80;;;;;;5107684;28;20644;-61
2021/03/04 06:58:00;;;;;;;6.15;5.55;;;18.80;48.90;;;;;;5107729;28;20172;-61
2021/03/04 07:00:26;;;;;;;6.10;5.50;;;18.70;49.00;;;;;;5107494;28;20249;-60
2021/03/04 07:02:53;;;;;;;5.60;5.05;;;18.70;49.10;;;;;;5107738;28;20184;-59
2021/03/04 07:05:19;;;;;;;6.20;5.60;;;18.60;49.20;;;;;;5107460;28;20229;-58
2021/03/04 07:07:46;;;;;;;6.25;5.65;;;18.60;49.40;;;;;;5107349;28;20243;-60
2021/03/04 07:10:12;;;;;;;7.75;5.55;;;18.40;49.50;;;;;;5089272;28;20341;-60
2021/03/04 07:12:38;;;;;;;6.25;5.65;;;18.40;49.60;;;;;;5089409;28;20176;-60
2021/03/04 07:15:04;;;;;;;6.15;5.65;;;18.30;49.80;;;;;;5089093;28;20238;-60
2021/03/04 07:17:30;;;;;;;7.15;6.00;;;18.20;49.80;;;;;;5089215;28;20233;-59
2021/03/04 07:19:57;;;;;;;5.68;5.18;;;18.20;50.00;;;;;;5089030;28;20926;-60
2021/03/04 07:22:23;;;;;;;5.90;5.30;;;18.10;50.10;;;;;;5088931;28;20185;-60
2021/03/04 07:24:50;;;;;;;5.85;5.25;;;18.00;50.10;;;;;;5089087;28;20224;-61
2021/03/04 07:27:16;;;;;;;6.18;5.57;;;17.90;50.20;;;;;;5107255;28;20181;-58
2021/03/04 07:29:42;;;;;;;6.63;5.72;;;17.90;50.40;;;;;;5106990;28;20318;-57
2021/03/04 07:32:09;;;;;;;7.13;5.95;;;17.80;50.40;;;;;;5106916;28;20926;-59
2021/03/04 07:34:35;;;;;;;6.07;5.47;;;17.80;50.50;;;;;;5106812;28;20838;-59
2021/03/04 07:37:00;;;;;;;6.45;5.35;;;17.80;50.50;;;;;;5106558;28;20177;-58
2021/03/04 07:39:30;;;;;;;6.40;5.32;;;17.80;50.60;;;;;;5089034;28;20173;-59
2021/03/04 07:41:56;;;;;;;6.15;5.57;;;17.80;50.70;;;;;;5106809;28;21021;-63
2021/03/04 07:44:29;;;;;;;6.20;5.47;;;17.90;50.60;;;;;;5088184;28;20288;-64
2021/03/04 07:47:02;;;;;;;6.85;5.28;;;17.90;50.80;;;;;;5106687;28;20169;-65
2021/03/04 07:49:34;;;;;;;6.82;6.05;;;17.90;50.70;;;;;;5106635;28;20206;-64
2021/03/04 07:52:12;;;;;;;6.45;5.60;;;17.90;51.00;;;;;;5071696;28;20184;-63
2021/03/04 07:54:41;;;;;;;7.38;6.55;;;17.80;51.00;;;;;;5106763;28;20188;-63
2021/03/04 07:57:08;;;;;;;6.65;5.82;;;17.80;51.20;;;;;;5106854;28;20177;-64
2021/03/04 07:59:34;;;;;;;8.65;7.10;;;17.70;51.10;;;;;;5106565;28;20210;-64
2021/03/04 08:02:02;;;;;;;7.75;6.30;;;17.80;51.40;;;;;;5106449;28;20241;-66
2021/03/04 08:04:28;;;;;;;9.07;7.35;;;17.70;51.30;;;;;;5088741;28;20173;-65
2021/03/04 08:06:54;;;;;;;9.02;7.53;;;17.70;51.30;;;;;;5088353;28;20218;-65
2021/03/04 08:09:33;;;;;;;10.48;6.93;;;17.70;51.20;;;;;;5106446;28;20203;-66
2021/03/04 08:12:11;;;;;;;8.75;6.65;;;17.80;51.20;;;;;;5088312;28;20184;-65
2021/03/04 08:14:38;;;;;;;8.68;6.63;;;17.80;51.20;;;;;;5088075;28;20192;-64
2021/03/04 08:17:04;;;;;;;8.82;6.70;;;17.90;51.40;;;;;;5106077;28;20183;-64
2021/03/04 08:19:30;;;;;;;8.48;6.53;;;17.90;51.70;;;;;;5106325;28;20177;-63
2021/03/04 08:22:08;;;;;;;8.23;6.53;;;17.90;51.50;;;;;;5088077;28;20179;-61
2021/03/04 08:24:38;;;;;;;10.35;6.60;;;17.80;51.60;;;;;;5106038;28;20329;-62
2021/03/04 08:27:07;;;;;;;9.10;6.85;;;17.80;51.80;;;;;;5070606;28;20203;-63
2021/03/04 08:29:33;;;;;;;8.82;7.07;;;17.80;51.70;;;;;;5105875;28;20578;-65
2021/03/04 08:32:01;;;;;;;10.25;7.60;;;17.80;51.90;;;;;;5106013;28;20177;-63
2021/03/04 08:34:36;;;;;;;8.32;6.57;;;17.80;51.90;;;;;;5087722;28;20169;-63
2021/03/04 08:37:02;;;;;;;9.15;6.68;;;17.80;51.90;;;;;;5105753;28;20798;-63
2021/03/04 08:39:32;;;;;;;9.02;6.70;;;17.80;52.00;;;;;;5105609;28;20173;-63
2021/03/04 08:42:05;;;;;;;8.88;6.95;;;17.80;51.90;;;;;;5105588;28;20177;-62
2021/03/04 08:44:30;;;;;;;9.82;6.10;;;17.80;51.90;;;;;;5105793;28;20180;-63
2021/03/04 08:46:56;;;;;;;7.28;5.95;;;17.80;51.90;;;;;;5087592;28;20173;-64
2021/03/04 08:49:22;;;;;;;8.38;6.43;;;17.80;51.90;;;;;;5105743;28;20170;-64
2021/03/04 08:51:48;;;;;;;7.15;6.25;;;17.80;52.00;;;;;;5105463;28;20760;-63
2021/03/04 08:54:21;;;;;;;6.45;5.85;;;17.80;52.00;;;;;;5087242;28;20188;-63
2021/03/04 08:57:03;;;;;;;6.95;6.03;;;17.80;52.00;;;;;;5086899;28;20168;-64
2021/03/04 08:59:28;;;;;;;8.90;6.00;;;17.80;52.00;;;;;;5120851;27;20176;-68
2021/03/04 09:01:54;;;;;;;7.80;5.95;;;17.80;52.20;;;;;;5105256;28;20188;-67
2021/03/04 09:04:20;;;;;;;7.50;5.70;;;17.80;52.20;;;;;;5087022;28;20591;-67
2021/03/04 09:06:46;;;;;;;8.38;6.47;;;17.80;52.30;;;;;;5105083;28;20185;-68
2021/03/04 09:09:27;;;;;;;8.77;6.43;;;17.70;52.30;;;;;;5086805;28;20181;-67
2021/03/04 09:11:54;;;;;;;7.15;6.15;;;17.80;52.40;;;;;;5105271;27;20177;-66
2021/03/04 09:14:30;;;;;;;7.85;6.25;;;17.80;52.40;;;;;;5095717;28;20173;-65
2021/03/04 09:16:56;;;;;;;7.15;5.90;;;17.70;52.50;;;;;;5117466;27;20207;-66
2021/03/04 09:19:32;;;;;;;8.75;6.40;;;17.70;52.40;;;;;;5125499;27;20577;-66
2021/03/04 09:21:58;;;;;;;8.70;6.70;;;17.70;52.40;;;;;;5106029;27;20223;-64
2021/03/04 09:24:24;;;;;;;7.75;6.05;;;17.70;52.60;;;;;;5070177;28;20230;-63
2021/03/04 09:26:50;;;;;;;9.05;6.75;;;17.70;52.60;;;;;;5086336;28;20619;-66
2021/03/04 09:29:16;;;;;;;7.78;5.72;;;17.70;52.60;;;;;;5113141;27;20176;-65
2021/03/04 09:31:49;;;;;;;7.93;5.93;;;17.80;52.70;;;;;;5106920;27;20172;-64
2021/03/04 09:34:14;;;;;;;9.55;6.50;;;17.80;52.70;;;;;;5125223;27;20246;-62
2021/03/04 09:36:40;;;;;;;7.90;6.03;;;17.80;52.60;;;;;;5125221;27;20177;-62
2021/03/04 09:39:05;;;;;;;9.05;5.90;;;17.80;52.60;;;;;;5107163;27;20225;-63
2021/03/04 09:41:31;;;;;;;7.88;5.85;;;17.80;52.60;;;;;;5118930;27;21026;-64
2021/03/04 09:44:01;;;;;;;6.25;5.22;;;17.70;52.50;;;;;;5103967;28;20208;-63
2021/03/04 09:46:29;;;;;;;8.10;5.78;;;17.70;52.60;;;;;;5105189;28;20666;-64
2021/03/04 09:49:09;;;;;;;7.32;5.45;;;17.70;52.60;;;;;;5082972;28;20177;-63
2021/03/04 09:51:39;;;;;;;7.68;5.65;;;17.70;52.60;;;;;;5103746;28;20642;-64
2021/03/04 09:54:05;;;;;;;7.65;5.03;;;17.70;52.70;;;;;;5103780;28;20284;-63
2021/03/04 09:56:31;;;;;;;6.93;5.35;;;17.60;52.60;;;;;;5103540;28;20181;-64
2021/03/04 09:58:57;;;;;;;5.60;4.65;;;17.80;52.70;;;;;;5103617;28;20169;-63
2021/03/04 10:01:41;;;;;;;5.13;4.60;;;17.80;52.70;;;;;;5103611;28;20187;-63
2021/03/04 10:04:07;;;;;;;6.80;5.53;;;17.70;52.50;;;;;;5103616;28;20232;-62
2021/03/04 10:06:36;;;;;;;6.28;5.20;;;17.70;52.60;;;;;;5103736;28;20666;-64
2021/03/04 10:09:02;;;;;;;12.80;5.50;;;17.70;52.50;;;;;;5105854;28;20187;-64
2021/03/04 10:11:28;;;;;;;7.05;5.60;;;17.70;52.50;;;;;;5107630;28;20169;-64
2021/03/04 10:13:54;;;;;;;8.80;6.35;;;17.70;52.60;;;;;;5107846;28;20188;-63
2021/03/04 10:16:20;;;;;;;5.72;4.93;;;17.70;52.60;;;;;;5088788;28;20169;-64
2021/03/04 10:18:48;;;;;;;5.43;4.93;;;17.70;52.60;;;;;;5107514;28;20181;-66
2021/03/04 10:21:14;;;;;;;5.30;4.65;;;17.70;52.70;;;;;;5105463;27;20204;-66
2021/03/04 10:23:40;;;;;;;7.53;5.55;;;17.70;52.60;;;;;;5129230;27;20563;-65
2021/03/04 10:26:06;;;;;;;5.20;4.70;;;17.70;52.60;;;;;;5128420;27;20208;-65
2021/03/04 10:28:31;;;;;;;5.32;4.63;;;17.70;52.60;;;;;;5129163;27;20198;-66
2021/03/04 10:30:57;;;;;;;5.88;4.70;;;17.70;52.50;;;;;;5129210;27;20168;-65
2021/03/04 10:33:23;;;;;;;5.15;4.57;;;17.70;52.60;;;;;;5128702;27;20201;-67
2021/03/04 10:35:48;;;;;;;5.63;5.05;;;17.70;52.50;;;;;;5128784;27;20213;-68
2021/03/04 10:38:14;;;;;;;6.28;4.63;;;17.60;52.40;;;;;;5110754;27;20175;-67
2021/03/04 10:40:40;;;;;;;5.53;4.72;;;17.60;52.60;;;;;;5129012;27;20173;-67
2021/03/04 10:43:05;;;;;;;6.15;5.00;;;17.60;53.20;;;;;;5128733;27;20625;-65
2021/03/04 10:45:31;;;;;;;5.13;4.53;;;17.60;52.60;;;;;;5128693;27;20210;-66
2021/03/04 10:47:56;;;;;;;5.15;4.50;;;17.60;52.60;;;;;;5110169;27;20168;-67
2021/03/04 10:50:22;;;;;;;7.07;5.00;;;17.70;52.70;;;;;;5128348;27;20237;-68
2021/03/04 10:52:48;;;;;;;4.88;4.40;;;17.70;52.60;;;;;;5110305;27;20164;-68
2021/03/04 10:55:15;;;;;;;5.15;4.65;;;17.70;52.50;;;;;;5128490;27;20361;-65
2021/03/04 10:57:41;;;;;;;6.05;4.45;;;17.70;52.50;;;;;;5128376;27;20175;-66
2021/03/04 11:00:09;;;;;;;6.03;4.15;;;17.70;52.40;;;;;;5128573;27;20588;-65
2021/03/04 11:02:35;;;;;;;5.05;4.30;;;17.70;52.30;;;;;;5128209;27;20184;-66
2021/03/04 11:05:00;;;;;;;4.90;4.05;;;17.70;52.30;;;;;;5128068;27;20212;-66
2021/03/04 11:07:26;;;;;;;6.82;5.03;;;17.70;52.40;;;;;;5127972;27;20196;-65
2021/03/04 11:09:52;;;;;;;4.53;4.05;;;17.70;52.30;;;;;;5110038;27;20941;-66
2021/03/04 11:12:20;;;;;;;5.13;4.07;;;17.70;52.50;;;;;;5109867;27;20184;-67
2021/03/04 11:14:46;;;;;;;4.95;4.20;;;17.80;52.50;;;;;;5110208;27;20183;-63
2021/03/04 11:17:12;;;;;;;5.13;3.65;;;17.90;52.70;;;;;;5128003;27;20172;-61
2021/03/04 11:19:37;;;;;;;4.15;3.75;;;18.10;52.40;;;;;;5126098;27;20273;-61
2021/03/04 11:22:03;;;;;;;5.05;3.78;;;18.20;52.20;;;;;;5106963;28;20169;-59
2021/03/04 11:24:29;;;;;;;5.05;3.95;;;18.50;51.80;;;;;;5107039;28;20968;-62
2021/03/04 11:26:54;;;;;;;6.03;3.60;;;18.90;51.20;;;;;;5107197;28;20173;-60
2021/03/04 11:29:20;;;;;;;5.32;4.10;;;19.10;50.60;;;;;;5107085;28;20630;-63
2021/03/04 11:31:45;;;;;;;5.22;3.75;;;19.40;50.10;;;;;;5107009;28;20192;-61
2021/03/04 11:34:11;;;;;;;4.60;3.60;;;19.60;49.90;;;;;;5106969;28;20177;-64
2021/03/04 11:36:37;;;;;;;5.28;3.80;;;19.70;49.70;;;;;;5106974;28;20931;-63
2021/03/04 11:39:03;;;;;;;4.90;3.30;;;19.70;49.50;;;;;;5107117;28;20177;-60
2021/03/04 11:41:28;;;;;;;5.03;3.55;;;19.70;49.30;;;;;;5107143;28;20534;-60
2021/03/04 11:43:54;;;;;;;4.38;3.45;;;19.80;49.40;;;;;;5106987;28;20181;-61
2021/03/04 11:46:19;;;;;;;3.83;3.20;;;19.90;49.20;;;;;;5106843;28;20201;-62
2021/03/04 11:48:46;;;;;;;3.72;3.10;;;20.00;49.00;;;;;;5106689;28;20474;-61
2021/03/04 11:51:11;;;;;;;4.28;3.05;;;20.10;49.00;;;;;;5088671;28;20871;-61
2021/03/04 11:53:37;;;;;;;4.68;3.20;;;20.10;48.90;;;;;;5106597;28;20170;-62
2021/03/04 11:56:02;;;;;;;5.13;3.25;;;20.20;48.80;;;;;;5106780;28;20180;-62
2021/03/04 11:58:28;;;;;;;4.30;2.90;;;20.20;48.80;;;;;;5106593;28;20211;-62
2021/03/04 12:00:54;;;;;;;3.00;2.70;;;20.30;48.70;;;;;;5106505;28;20230;-61
2021/03/04 12:03:20;;;;;;;6.32;3.20;;;20.30;48.60;;;;;;5106304;28;20177;-62
2021/03/04 12:05:46;;;;;;;3.67;3.15;;;20.30;48.60;;;;;;5106289;28;20201;-63
2021/03/04 12:08:12;;;;;;;4.50;3.10;;;20.40;48.60;;;;;;5106444;28;20193;-63
2021/03/04 12:10:38;;;;;;;3.85;2.70;;;20.30;48.60;;;;;;5105934;28;20232;-62
2021/03/04 12:13:04;;;;;;;3.35;2.88;;;20.40;48.70;;;;;;5106565;28;20203;-63
2021/03/04 12:15:30;;;;;;;3.53;3.13;;;20.40;48.70;;;;;;5106163;28;20657;-62
2021/03/04 12:17:56;;;;;;;3.15;2.58;;;20.30;48.80;;;;;;5106260;28;20165;-63
2021/03/04 12:20:21;;;;;;;3.15;2.70;;;20.30;48.90;;;;;;5113576;27;20168;-63
2021/03/04 12:22:47;;;;;;;4.05;2.60;;;20.30;49.00;;;;;;5126299;27;20221;-63
2021/03/04 12:25:13;;;;;;;4.38;2.65;;;20.30;48.90;;;;;;5126586;27;20224;-62
2021/03/04 12:27:38;;;;;;;5.45;2.70;;;20.40;49.10;;;;;;5126689;27;20177;-65
2021/03/04 12:30:04;;;;;;;3.67;2.75;;;20.30;49.00;;;;;;5112472;27;20566;-61
2021/03/04 12:32:30;;;;;;;3.75;3.05;;;20.30;49.10;;;;;;5103799;28;20173;-61
2021/03/04 12:34:55;;;;;;;4.80;2.88;;;20.40;49.30;;;;;;5105102;28;20695;-61
2021/03/04 12:37:21;;;;;;;4.63;2.65;;;20.40;49.10;;;;;;5105198;28;20182;-62